sensor_id;sensor_type;location;lat;lon;timestamp;P1;P2;P0
73749;PMS7003;62058;48.406;-4.514;2023-05-13T00:00:47;11.25;4.25;4.00
73749;PMS7003;62058;48.406;-4.514;2023-05-13T00:03:12;7.33;2.33;2.33
73749;PMS7003;62058;48.406;-4.514;2023-05-13T00:05:37;3.33;2.33;1.67
73749;PMS7003;62058;48.406;-4.514;2023-05-13T00:08:03;6.50;2.25;2.25
73749;PMS7003;62058;48.406;-4.514;2023-05-13T00:10:31;4.75;2.25;2.25
73749;PMS7003;62058;48.406;-4.514;2023-05-13T00:12:57;1.25;1.25;1.25
73749;PMS7003;62058;48.406;-4.514;2023-05-13T00:15:22;5.33;3.00;3.00
73749;PMS7003;62058;48.406;-4.514;2023-05-13T00:17:47;5.67;2.00;2.00
73749;PMS7003;62058;48.406;-4.514;2023-05-13T00:20:12;5.25;2.75;2.00
73749;PMS7003;62058;48.406;-4.514;2023-05-13T00:22:37;3.00;3.00;3.00
73749;PMS7003;62058;48.406;-4.514;2023-05-13T00:25:03;3.67;1.67;1.67
73749;PMS7003;62058;48.406;-4.514;2023-05-13T00:27:28;4.00;1.75;1.75
73749;PMS7003;62058;48.406;-4.514;2023-05-13T00:29:53;6.00;3.00;3.00
73749;PMS7003;62058;48.406;-4.514;2023-05-13T00:32:19;3.00;3.00;3.00
73749;PMS7003;62058;48.406;-4.514;2023-05-13T00:34:44;4.00;3.50;3.00
73749;PMS7003;62058;48.406;-4.514;2023-05-13T00:37:09;3.67;1.33;1.00
73749;PMS7003;62058;48.406;-4.514;2023-05-13T00:39:36;3.00;1.00;1.00
73749;PMS7003;62058;48.406;-4.514;2023-05-13T00:42:01;8.00;3.75;3.75
73749;PMS7003;62058;48.406;-4.514;2023-05-13T00:44:28;11.00;5.50;4.50
73749;PMS7003;62058;48.406;-4.514;2023-05-13T00:46:54;3.00;3.00;3.00
73749;PMS7003;62058;48.406;-4.514;2023-05-13T00:49:20;9.00;1.50;1.50
73749;PMS7003;62058;48.406;-4.514;2023-05-13T00:51:45;1.50;1.00;1.00
73749;PMS7003;62058;48.406;-4.514;2023-05-13T00:54:11;3.75;1.00;1.00
73749;PMS7003;62058;48.406;-4.514;2023-05-13T00:56:36;3.00;3.00;3.00
73749;PMS7003;62058;48.406;-4.514;2023-05-13T00:59:02;7.50;3.25;3.25
73749;PMS7003;62058;48.406;-4.514;2023-05-13T01:01:35;3.00;0.00;0.00
73749;PMS7003;62058;48.406;-4.514;2023-05-13T01:06:32;3.75;1.00;1.00
73749;PMS7003;62058;48.406;-4.514;2023-05-13T01:09:11;2.50;1.00;1.00
73749;PMS7003;62058;48.406;-4.514;2023-05-13T01:11:39;1.00;1.00;1.00
73749;PMS7003;62058;48.406;-4.514;2023-05-13T01:14:07;6.00;3.25;3.00
73749;PMS7003;62058;48.406;-4.514;2023-05-13T01:16:34;2.50;2.50;2.50
73749;PMS7003;62058;48.406;-4.514;2023-05-13T01:19:05;6.50;3.25;3.25
73749;PMS7003;62058;48.406;-4.514;2023-05-13T01:21:34;3.00;1.00;1.00
73749;PMS7003;62058;48.406;-4.514;2023-05-13T01:24:00;4.00;3.00;3.00
73749;PMS7003;62058;48.406;-4.514;2023-05-13T01:26:25;4.00;3.00;3.00
73749;PMS7003;62058;48.406;-4.514;2023-05-13T01:28:51;5.25;2.75;1.00
73749;PMS7003;62058;48.406;-4.514;2023-05-13T01:31:16;1.00;1.00;1.00
73749;PMS7003;62058;48.406;-4.514;2023-05-13T01:33:43;3.00;3.00;3.00
73749;PMS7003;62058;48.406;-4.514;2023-05-13T01:36:08;3.75;1.00;1.00
73749;PMS7003;62058;48.406;-4.514;2023-05-13T01:38:34;2.50;2.50;2.50
73749;PMS7003;62058;48.406;-4.514;2023-05-13T01:41:00;9.75;4.00;3.50
73749;PMS7003;62058;48.406;-4.514;2023-05-13T01:43:26;11.00;5.25;5.25
73749;PMS7003;62058;48.406;-4.514;2023-05-13T01:45:51;3.75;1.00;1.00
73749;PMS7003;62058;48.406;-4.514;2023-05-13T01:48:16;7.00;3.50;3.25
73749;PMS7003;62058;48.406;-4.514;2023-05-13T01:50:42;3.50;1.00;1.00
73749;PMS7003;62058;48.406;-4.514;2023-05-13T01:53:08;1.50;1.00;1.00
73749;PMS7003;62058;48.406;-4.514;2023-05-13T01:55:33;11.67;5.00;4.67
73749;PMS7003;62058;48.406;-4.514;2023-05-13T01:57:58;9.00;7.25;7.25
73749;PMS7003;62058;48.406;-4.514;2023-05-13T02:00:24;7.00;4.00;4.00
73749;PMS7003;62058;48.406;-4.514;2023-05-13T02:02:49;4.00;3.00;2.75
73749;PMS7003;62058;48.406;-4.514;2023-05-13T02:05:15;7.00;4.75;4.75
73749;PMS7003;62058;48.406;-4.514;2023-05-13T02:07:40;6.75;4.50;4.00
73749;PMS7003;62058;48.406;-4.514;2023-05-13T02:10:06;3.25;1.75;1.75
73749;PMS7003;62058;48.406;-4.514;2023-05-13T02:12:31;8.25;3.75;3.75
73749;PMS7003;62058;48.406;-4.514;2023-05-13T02:14:56;9.25;3.75;3.75
73749;PMS7003;62058;48.406;-4.514;2023-05-13T02:17:22;4.67;4.67;4.00
73749;PMS7003;62058;48.406;-4.514;2023-05-13T02:19:47;7.00;4.50;4.00
73749;PMS7003;62058;48.406;-4.514;2023-05-13T02:22:13;6.00;3.50;3.50
73749;PMS7003;62058;48.406;-4.514;2023-05-13T02:24:38;7.00;7.00;6.67
73749;PMS7003;62058;48.406;-4.514;2023-05-13T02:27:06;7.25;7.00;7.00
73749;PMS7003;62058;48.406;-4.514;2023-05-13T02:29:32;5.50;5.50;5.50
73749;PMS7003;62058;48.406;-4.514;2023-05-13T02:31:57;7.25;3.50;3.50
73749;PMS7003;62058;48.406;-4.514;2023-05-13T02:34:22;10.00;6.00;6.00
73749;PMS7003;62058;48.406;-4.514;2023-05-13T02:36:48;12.33;6.33;5.33
73749;PMS7003;62058;48.406;-4.514;2023-05-13T02:39:13;10.00;7.00;7.00
73749;PMS7003;62058;48.406;-4.514;2023-05-13T02:41:38;8.25;1.00;1.00
73749;PMS7003;62058;48.406;-4.514;2023-05-13T02:44:04;12.00;7.67;7.00
73749;PMS7003;62058;48.406;-4.514;2023-05-13T02:46:29;6.00;6.00;6.00
73749;PMS7003;62058;48.406;-4.514;2023-05-13T02:48:55;10.00;6.75;6.75
73749;PMS7003;62058;48.406;-4.514;2023-05-13T02:51:20;5.00;3.25;3.25
73749;PMS7003;62058;48.406;-4.514;2023-05-13T02:53:45;9.33;6.00;6.00
73749;PMS7003;62058;48.406;-4.514;2023-05-13T02:56:10;10.00;6.00;4.00
73749;PMS7003;62058;48.406;-4.514;2023-05-13T02:58:36;6.50;6.00;4.25
73749;PMS7003;62058;48.406;-4.514;2023-05-13T03:01:01;11.75;5.25;5.25
73749;PMS7003;62058;48.406;-4.514;2023-05-13T03:03:26;6.00;3.00;3.00
73749;PMS7003;62058;48.406;-4.514;2023-05-13T03:05:52;10.25;4.25;4.25
73749;PMS7003;62058;48.406;-4.514;2023-05-13T03:08:18;3.50;3.50;3.50
73749;PMS7003;62058;48.406;-4.514;2023-05-13T03:10:43;3.25;1.50;1.50
73749;PMS7003;62058;48.406;-4.514;2023-05-13T03:13:08;7.00;4.67;4.67
73749;PMS7003;62058;48.406;-4.514;2023-05-13T03:15:33;6.67;5.33;4.67
73749;PMS7003;62058;48.406;-4.514;2023-05-13T03:17:59;6.00;3.00;3.00
73749;PMS7003;62058;48.406;-4.514;2023-05-13T03:20:24;6.33;6.33;6.00
73749;PMS7003;62058;48.406;-4.514;2023-05-13T03:22:49;8.50;3.00;3.00
73749;PMS7003;62058;48.406;-4.514;2023-05-13T03:25:14;6.00;6.00;6.00
73749;PMS7003;62058;48.406;-4.514;2023-05-13T03:27:40;20.00;8.00;7.75
73749;PMS7003;62058;48.406;-4.514;2023-05-13T03:30:05;7.00;6.75;6.00
73749;PMS7003;62058;48.406;-4.514;2023-05-13T03:32:31;12.50;7.00;6.50
73749;PMS7003;62058;48.406;-4.514;2023-05-13T03:34:56;3.25;2.50;2.50
73749;PMS7003;62058;48.406;-4.514;2023-05-13T03:37:23;9.25;6.00;6.00
73749;PMS7003;62058;48.406;-4.514;2023-05-13T03:39:49;6.25;3.75;3.50
73749;PMS7003;62058;48.406;-4.514;2023-05-13T03:42:14;5.25;2.50;2.50
73749;PMS7003;62058;48.406;-4.514;2023-05-13T03:44:40;9.00;7.00;6.00
73749;PMS7003;62058;48.406;-4.514;2023-05-13T03:47:05;6.67;4.00;4.00
73749;PMS7003;62058;48.406;-4.514;2023-05-13T03:49:30;5.50;3.75;3.75
73749;PMS7003;62058;48.406;-4.514;2023-05-13T03:51:55;1.00;1.00;1.00
73749;PMS7003;62058;48.406;-4.514;2023-05-13T03:54:21;6.00;4.67;4.00
73749;PMS7003;62058;48.406;-4.514;2023-05-13T03:56:46;7.33;6.33;6.33
73749;PMS7003;62058;48.406;-4.514;2023-05-13T03:59:11;6.33;4.00;4.00
73749;PMS7003;62058;48.406;-4.514;2023-05-13T04:01:36;8.67;6.67;6.00
73749;PMS7003;62058;48.406;-4.514;2023-05-13T04:04:02;17.33;9.00;7.00
73749;PMS7003;62058;48.406;-4.514;2023-05-13T04:06:27;12.25;6.25;6.25
73749;PMS7003;62058;48.406;-4.514;2023-05-13T04:08:52;16.33;7.00;7.00
73749;PMS7003;62058;48.406;-4.514;2023-05-13T04:11:17;12.75;5.50;5.00
73749;PMS7003;62058;48.406;-4.514;2023-05-13T04:13:43;3.50;1.00;1.00
73749;PMS7003;62058;48.406;-4.514;2023-05-13T04:16:09;6.00;4.00;4.00
73749;PMS7003;62058;48.406;-4.514;2023-05-13T04:18:35;5.25;3.75;2.75
73749;PMS7003;62058;48.406;-4.514;2023-05-13T04:21:04;10.00;8.00;7.50
73749;PMS7003;62058;48.406;-4.514;2023-05-13T04:23:30;8.50;6.50;6.00
73749;PMS7003;62058;48.406;-4.514;2023-05-13T04:25:55;15.00;7.00;7.00
73749;PMS7003;62058;48.406;-4.514;2023-05-13T04:28:20;4.33;3.67;3.67
73749;PMS7003;62058;48.406;-4.514;2023-05-13T04:30:45;7.75;7.00;6.25
73749;PMS7003;62058;48.406;-4.514;2023-05-13T04:33:11;11.00;6.00;6.00
73749;PMS7003;62058;48.406;-4.514;2023-05-13T04:35:36;12.75;6.25;5.50
73749;PMS7003;62058;48.406;-4.514;2023-05-13T04:38:01;5.50;3.75;3.75
73749;PMS7003;62058;48.406;-4.514;2023-05-13T04:40:27;13.50;8.50;7.00
73749;PMS7003;62058;48.406;-4.514;2023-05-13T04:42:52;8.00;6.25;5.50
73749;PMS7003;62058;48.406;-4.514;2023-05-13T04:45:19;10.00;10.00;9.00
73749;PMS7003;62058;48.406;-4.514;2023-05-13T04:47:44;16.75;8.50;7.50
73749;PMS7003;62058;48.406;-4.514;2023-05-13T04:50:09;12.33;7.67;7.67
73749;PMS7003;62058;48.406;-4.514;2023-05-13T04:52:35;12.00;9.00;7.67
73749;PMS7003;62058;48.406;-4.514;2023-05-13T04:55:01;14.00;3.50;3.25
73749;PMS7003;62058;48.406;-4.514;2023-05-13T04:57:26;11.75;6.75;6.50
73749;PMS7003;62058;48.406;-4.514;2023-05-13T04:59:51;12.00;7.00;7.00
73749;PMS7003;62058;48.406;-4.514;2023-05-13T05:02:17;12.00;7.00;7.00
73749;PMS7003;62058;48.406;-4.514;2023-05-13T05:04:43;13.67;9.67;9.33
73749;PMS7003;62058;48.406;-4.514;2023-05-13T05:07:08;9.00;8.50;8.50
73749;PMS7003;62058;48.406;-4.514;2023-05-13T05:09:33;6.67;6.00;6.00
73749;PMS7003;62058;48.406;-4.514;2023-05-13T05:11:58;15.67;9.00;9.00
73749;PMS7003;62058;48.406;-4.514;2023-05-13T05:14:24;13.00;9.25;9.25
73749;PMS7003;62058;48.406;-4.514;2023-05-13T05:16:50;14.00;9.25;7.50
73749;PMS7003;62058;48.406;-4.514;2023-05-13T05:19:15;17.00;10.67;10.67
73749;PMS7003;62058;48.406;-4.514;2023-05-13T05:21:40;12.25;10.00;9.00
73749;PMS7003;62058;48.406;-4.514;2023-05-13T05:24:05;15.33;13.00;12.00
73749;PMS7003;62058;48.406;-4.514;2023-05-13T05:26:31;10.75;9.25;7.50
73749;PMS7003;62058;48.406;-4.514;2023-05-13T05:28:56;13.33;8.33;7.67
73749;PMS7003;62058;48.406;-4.514;2023-05-13T05:31:21;6.33;4.67;4.67
73749;PMS7003;62058;48.406;-4.514;2023-05-13T05:33:46;7.50;7.00;7.00
73749;PMS7003;62058;48.406;-4.514;2023-05-13T05:36:12;4.67;4.00;4.00
73749;PMS7003;62058;48.406;-4.514;2023-05-13T05:38:37;3.33;2.67;2.33
73749;PMS7003;62058;48.406;-4.514;2023-05-13T05:41:02;15.00;9.50;9.00
73749;PMS7003;62058;48.406;-4.514;2023-05-13T05:43:28;7.00;6.50;6.25
73749;PMS7003;62058;48.406;-4.514;2023-05-13T05:45:53;22.00;10.50;9.25
73749;PMS7003;62058;48.406;-4.514;2023-05-13T05:48:18;14.50;6.50;6.50
73749;PMS7003;62058;48.406;-4.514;2023-05-13T05:50:44;13.50;9.00;7.50
73749;PMS7003;62058;48.406;-4.514;2023-05-13T05:53:09;7.00;1.75;1.00
73749;PMS7003;62058;48.406;-4.514;2023-05-13T05:55:34;22.50;10.00;9.75
73749;PMS7003;62058;48.406;-4.514;2023-05-13T05:58:01;11.33;9.00;9.00
73749;PMS7003;62058;48.406;-4.514;2023-05-13T06:00:29;7.00;7.00;6.75
73749;PMS7003;62058;48.406;-4.514;2023-05-13T06:02:54;14.75;10.25;8.25
73749;PMS7003;62058;48.406;-4.514;2023-05-13T06:05:21;15.75;8.25;7.75
73749;PMS7003;62058;48.406;-4.514;2023-05-13T06:07:46;18.25;12.50;11.75
73749;PMS7003;62058;48.406;-4.514;2023-05-13T06:10:12;7.67;6.67;6.67
73749;PMS7003;62058;48.406;-4.514;2023-05-13T06:12:37;14.75;8.25;8.25
73749;PMS7003;62058;48.406;-4.514;2023-05-13T06:15:04;14.50;9.50;8.25
73749;PMS7003;62058;48.406;-4.514;2023-05-13T06:17:34;9.00;7.00;6.25
73749;PMS7003;62058;48.406;-4.514;2023-05-13T06:19:59;7.50;6.50;6.00
73749;PMS7003;62058;48.406;-4.514;2023-05-13T06:22:24;17.67;10.67;9.33
73749;PMS7003;62058;48.406;-4.514;2023-05-13T06:24:50;17.00;9.00;9.00
73749;PMS7003;62058;48.406;-4.514;2023-05-13T06:27:15;15.33;12.33;11.33
73749;PMS7003;62058;48.406;-4.514;2023-05-13T06:29:40;11.25;7.25;7.00
73749;PMS7003;62058;48.406;-4.514;2023-05-13T06:32:06;7.67;6.67;6.67
73749;PMS7003;62058;48.406;-4.514;2023-05-13T06:34:31;12.00;11.00;9.50
73749;PMS7003;62058;48.406;-4.514;2023-05-13T06:36:56;14.33;10.00;9.00
73749;PMS7003;62058;48.406;-4.514;2023-05-13T06:39:22;19.33;15.00;12.33
73749;PMS7003;62058;48.406;-4.514;2023-05-13T06:41:47;16.50;11.50;10.75
73749;PMS7003;62058;48.406;-4.514;2023-05-13T06:44:12;16.00;16.00;13.33
73749;PMS7003;62058;48.406;-4.514;2023-05-13T06:46:37;17.00;16.00;13.00
73749;PMS7003;62058;48.406;-4.514;2023-05-13T06:49:03;19.50;14.75;12.50
73749;PMS7003;62058;48.406;-4.514;2023-05-13T06:51:28;16.00;9.50;7.00
73749;PMS7003;62058;48.406;-4.514;2023-05-13T06:53:55;10.75;9.00;8.00
73749;PMS7003;62058;48.406;-4.514;2023-05-13T06:56:20;23.00;10.00;8.00
73749;PMS7003;62058;48.406;-4.514;2023-05-13T06:58:47;20.25;11.50;10.50
73749;PMS7003;62058;48.406;-4.514;2023-05-13T07:01:13;12.75;12.75;11.00
73749;PMS7003;62058;48.406;-4.514;2023-05-13T07:03:38;15.75;14.00;13.00
73749;PMS7003;62058;48.406;-4.514;2023-05-13T07:06:04;10.00;6.00;5.50
73749;PMS7003;62058;48.406;-4.514;2023-05-13T07:08:29;22.00;11.25;10.00
73749;PMS7003;62058;48.406;-4.514;2023-05-13T07:10:55;15.33;8.00;7.00
73749;PMS7003;62058;48.406;-4.514;2023-05-13T07:13:20;12.50;8.75;8.25
73749;PMS7003;62058;48.406;-4.514;2023-05-13T07:15:46;23.00;18.25;14.25
73749;PMS7003;62058;48.406;-4.514;2023-05-13T07:18:11;19.25;11.25;10.75
73749;PMS7003;62058;48.406;-4.514;2023-05-13T07:20:37;14.00;13.25;11.00
73749;PMS7003;62058;48.406;-4.514;2023-05-13T07:23:02;17.33;15.00;13.67
73749;PMS7003;62058;48.406;-4.514;2023-05-13T07:25:27;15.25;9.00;8.00
73749;PMS7003;62058;48.406;-4.514;2023-05-13T07:27:52;18.50;13.75;12.25
73749;PMS7003;62058;48.406;-4.514;2023-05-13T07:30:18;15.33;9.67;9.33
73749;PMS7003;62058;48.406;-4.514;2023-05-13T07:32:43;16.00;7.00;6.00
73749;PMS7003;62058;48.406;-4.514;2023-05-13T07:35:08;19.25;14.50;14.00
73749;PMS7003;62058;48.406;-4.514;2023-05-13T07:37:34;20.75;18.50;14.25
73749;PMS7003;62058;48.406;-4.514;2023-05-13T07:40:00;20.25;12.50;11.25
73749;PMS7003;62058;48.406;-4.514;2023-05-13T07:42:26;15.50;11.75;10.50
73749;PMS7003;62058;48.406;-4.514;2023-05-13T07:44:53;19.75;11.50;10.25
73749;PMS7003;62058;48.406;-4.514;2023-05-13T07:47:19;17.50;9.25;8.25
73749;PMS7003;62058;48.406;-4.514;2023-05-13T07:49:44;19.75;14.25;12.25
73749;PMS7003;62058;48.406;-4.514;2023-05-13T07:52:10;15.00;11.33;11.33
73749;PMS7003;62058;48.406;-4.514;2023-05-13T07:54:35;18.00;11.25;10.00
73749;PMS7003;62058;48.406;-4.514;2023-05-13T07:57:00;22.50;14.75;10.75
73749;PMS7003;62058;48.406;-4.514;2023-05-13T07:59:26;13.50;10.50;10.00
73749;PMS7003;62058;48.406;-4.514;2023-05-13T08:01:52;14.50;11.75;11.50
73749;PMS7003;62058;48.406;-4.514;2023-05-13T08:04:17;13.75;13.75;12.75
73749;PMS7003;62058;48.406;-4.514;2023-05-13T08:06:42;17.33;16.00;14.00
73749;PMS7003;62058;48.406;-4.514;2023-05-13T08:09:07;21.00;15.75;13.25
73749;PMS7003;62058;48.406;-4.514;2023-05-13T08:11:35;18.00;15.25;12.25
73749;PMS7003;62058;48.406;-4.514;2023-05-13T08:14:01;16.33;12.67;11.33
73749;PMS7003;62058;48.406;-4.514;2023-05-13T08:16:26;14.33;12.67;12.00
73749;PMS7003;62058;48.406;-4.514;2023-05-13T08:18:51;13.33;12.67;11.67
73749;PMS7003;62058;48.406;-4.514;2023-05-13T08:21:16;18.67;14.67;13.33
73749;PMS7003;62058;48.406;-4.514;2023-05-13T08:23:42;22.50;18.00;13.75
73749;PMS7003;62058;48.406;-4.514;2023-05-13T08:26:07;22.00;16.33;13.33
73749;PMS7003;62058;48.406;-4.514;2023-05-13T08:28:32;13.67;11.33;10.33
73749;PMS7003;62058;48.406;-4.514;2023-05-13T08:30:57;25.00;14.33;11.33
73749;PMS7003;62058;48.406;-4.514;2023-05-13T08:33:27;17.00;13.75;11.50
73749;PMS7003;62058;48.406;-4.514;2023-05-13T08:35:53;22.00;17.75;13.50
73749;PMS7003;62058;48.406;-4.514;2023-05-13T08:38:18;13.00;12.67;12.00
73749;PMS7003;62058;48.406;-4.514;2023-05-13T08:40:43;18.50;15.00;12.00
73749;PMS7003;62058;48.406;-4.514;2023-05-13T08:43:09;20.50;15.00;14.00
73749;PMS7003;62058;48.406;-4.514;2023-05-13T08:45:35;19.50;16.00;13.75
73749;PMS7003;62058;48.406;-4.514;2023-05-13T08:48:02;19.75;18.75;14.00
73749;PMS7003;62058;48.406;-4.514;2023-05-13T08:50:28;16.50;14.25;11.50
73749;PMS7003;62058;48.406;-4.514;2023-05-13T08:52:53;19.50;17.00;14.50
73749;PMS7003;62058;48.406;-4.514;2023-05-13T08:55:19;19.25;17.25;16.00
73749;PMS7003;62058;48.406;-4.514;2023-05-13T08:57:45;12.50;12.50;11.75
73749;PMS7003;62058;48.406;-4.514;2023-05-13T09:00:10;13.00;11.75;10.50
73749;PMS7003;62058;48.406;-4.514;2023-05-13T09:02:36;16.50;15.75;13.50
73749;PMS7003;62058;48.406;-4.514;2023-05-13T09:05:03;20.25;17.75;15.25
73749;PMS7003;62058;48.406;-4.514;2023-05-13T09:07:30;19.50;15.00;13.00
73749;PMS7003;62058;48.406;-4.514;2023-05-13T09:09:56;20.75;16.25;14.50
73749;PMS7003;62058;48.406;-4.514;2023-05-13T09:15:07;19.00;15.50;15.25
73749;PMS7003;62058;48.406;-4.514;2023-05-13T09:17:35;18.00;16.00;14.00
73749;PMS7003;62058;48.406;-4.514;2023-05-13T09:20:05;12.75;10.25;8.00
73749;PMS7003;62058;48.406;-4.514;2023-05-13T09:22:31;15.50;14.75;13.00
73749;PMS7003;62058;48.406;-4.514;2023-05-13T09:24:56;16.00;14.25;12.50
73749;PMS7003;62058;48.406;-4.514;2023-05-13T09:27:26;15.75;15.25;12.00
73749;PMS7003;62058;48.406;-4.514;2023-05-13T09:29:59;15.50;15.50;14.00
73749;PMS7003;62058;48.406;-4.514;2023-05-13T09:32:25;22.25;19.50;15.50
73749;PMS7003;62058;48.406;-4.514;2023-05-13T09:34:50;22.50;16.25;14.25
73749;PMS7003;62058;48.406;-4.514;2023-05-13T09:37:16;12.67;12.67;11.67
73749;PMS7003;62058;48.406;-4.514;2023-05-13T09:39:42;17.25;14.25;13.00
73749;PMS7003;62058;48.406;-4.514;2023-05-13T09:42:13;25.67;19.67;16.67
73749;PMS7003;62058;48.406;-4.514;2023-05-13T09:44:39;14.50;12.25;11.00
73749;PMS7003;62058;48.406;-4.514;2023-05-13T09:47:04;18.75;14.50;13.00
73749;PMS7003;62058;48.406;-4.514;2023-05-13T09:49:30;13.25;12.25;11.25
73749;PMS7003;62058;48.406;-4.514;2023-05-13T09:51:55;24.75;19.25;17.50
73749;PMS7003;62058;48.406;-4.514;2023-05-13T09:54:20;21.00;15.00;12.67
73749;PMS7003;62058;48.406;-4.514;2023-05-13T09:56:46;18.50;14.25;12.75
73749;PMS7003;62058;48.406;-4.514;2023-05-13T09:59:11;20.75;17.75;14.50
73749;PMS7003;62058;48.406;-4.514;2023-05-13T10:01:36;14.25;13.75;11.75
73749;PMS7003;62058;48.406;-4.514;2023-05-13T10:04:03;20.00;15.75;14.25
73749;PMS7003;62058;48.406;-4.514;2023-05-13T10:06:30;20.75;16.25;12.75
73749;PMS7003;62058;48.406;-4.514;2023-05-13T10:08:59;18.50;16.50;14.50
73749;PMS7003;62058;48.406;-4.514;2023-05-13T10:11:26;19.00;17.25;13.75
73749;PMS7003;62058;48.406;-4.514;2023-05-13T10:13:53;21.00;14.50;13.00
73749;PMS7003;62058;48.406;-4.514;2023-05-13T10:16:19;22.75;20.00;15.75
73749;PMS7003;62058;48.406;-4.514;2023-05-13T10:18:45;24.00;17.00;13.75
73749;PMS7003;62058;48.406;-4.514;2023-05-13T10:21:11;24.25;16.75;12.75
73749;PMS7003;62058;48.406;-4.514;2023-05-13T10:23:36;20.75;16.50;14.50
73749;PMS7003;62058;48.406;-4.514;2023-05-13T10:26:02;15.50;12.75;11.50
73749;PMS7003;62058;48.406;-4.514;2023-05-13T10:28:27;17.00;13.50;11.00
73749;PMS7003;62058;48.406;-4.514;2023-05-13T10:30:53;15.25;13.75;13.50
73749;PMS7003;62058;48.406;-4.514;2023-05-13T10:33:18;22.75;16.25;14.25
73749;PMS7003;62058;48.406;-4.514;2023-05-13T10:38:33;19.75;15.75;13.75
73749;PMS7003;62058;48.406;-4.514;2023-05-13T10:43:33;15.00;14.75;12.50
73749;PMS7003;62058;48.406;-4.514;2023-05-13T10:48:26;21.75;19.00;16.75
73749;PMS7003;62058;48.406;-4.514;2023-05-13T10:51:02;17.75;14.75;13.25
73749;PMS7003;62058;48.406;-4.514;2023-05-13T10:53:30;24.50;17.25;15.75
73749;PMS7003;62058;48.406;-4.514;2023-05-13T10:55:56;12.25;9.75;9.25
73749;PMS7003;62058;48.406;-4.514;2023-05-13T10:58:33;22.75;18.50;15.00
73749;PMS7003;62058;48.406;-4.514;2023-05-13T11:03:49;28.75;17.50;15.50
73749;PMS7003;62058;48.406;-4.514;2023-05-13T11:06:16;15.50;13.25;11.75
73749;PMS7003;62058;48.406;-4.514;2023-05-13T11:08:43;21.75;16.50;14.75
73749;PMS7003;62058;48.406;-4.514;2023-05-13T11:14:06;21.00;16.00;14.00
73749;PMS7003;62058;48.406;-4.514;2023-05-13T11:16:33;18.75;14.00;12.00
73749;PMS7003;62058;48.406;-4.514;2023-05-13T11:18:59;17.25;15.25;12.25
73749;PMS7003;62058;48.406;-4.514;2023-05-13T11:21:32;20.75;17.00;14.75
73749;PMS7003;62058;48.406;-4.514;2023-05-13T11:24:02;17.25;15.00;14.25
73749;PMS7003;62058;48.406;-4.514;2023-05-13T11:26:44;23.25;16.50;14.25
73749;PMS7003;62058;48.406;-4.514;2023-05-13T11:29:10;20.75;16.25;14.25
73749;PMS7003;62058;48.406;-4.514;2023-05-13T11:31:46;22.50;19.50;14.75
73749;PMS7003;62058;48.406;-4.514;2023-05-13T11:34:15;20.75;16.00;14.25
73749;PMS7003;62058;48.406;-4.514;2023-05-13T11:36:43;16.00;14.25;12.00
73749;PMS7003;62058;48.406;-4.514;2023-05-13T11:39:15;14.75;12.50;10.75
73749;PMS7003;62058;48.406;-4.514;2023-05-13T11:41:42;18.00;14.00;10.00
73749;PMS7003;62058;48.406;-4.514;2023-05-13T11:44:08;22.75;17.75;16.00
73749;PMS7003;62058;48.406;-4.514;2023-05-13T11:46:34;22.50;15.75;14.25
73749;PMS7003;62058;48.406;-4.514;2023-05-13T11:49:00;8.75;5.75;5.00
73749;PMS7003;62058;48.406;-4.514;2023-05-13T11:51:25;16.50;9.75;9.00
73749;PMS7003;62058;48.406;-4.514;2023-05-13T11:53:51;10.50;9.00;7.00
73749;PMS7003;62058;48.406;-4.514;2023-05-13T11:56:19;11.25;9.00;8.25
73749;PMS7003;62058;48.406;-4.514;2023-05-13T11:58:49;18.25;14.00;12.50
73749;PMS7003;62058;48.406;-4.514;2023-05-13T12:01:15;22.25;15.00;12.00
73749;PMS7003;62058;48.406;-4.514;2023-05-13T12:03:40;12.00;10.25;9.75
73749;PMS7003;62058;48.406;-4.514;2023-05-13T12:06:05;17.50;15.50;13.00
73749;PMS7003;62058;48.406;-4.514;2023-05-13T12:08:30;19.25;13.25;12.25
73749;PMS7003;62058;48.406;-4.514;2023-05-13T12:10:57;17.50;13.50;11.50
73749;PMS7003;62058;48.406;-4.514;2023-05-13T12:13:23;14.50;11.50;10.50
73749;PMS7003;62058;48.406;-4.514;2023-05-13T12:15:48;20.50;14.25;13.00
73749;PMS7003;62058;48.406;-4.514;2023-05-13T12:18:14;15.50;10.75;9.75
73749;PMS7003;62058;48.406;-4.514;2023-05-13T12:20:39;21.75;17.00;14.25
73749;PMS7003;62058;48.406;-4.514;2023-05-13T12:23:04;11.33;11.33;9.00
73749;PMS7003;62058;48.406;-4.514;2023-05-13T12:27:59;7.75;7.75;7.00
73749;PMS7003;62058;48.406;-4.514;2023-05-13T12:30:33;17.25;16.75;13.25
73749;PMS7003;62058;48.406;-4.514;2023-05-13T12:32:59;18.25;14.50;12.00
73749;PMS7003;62058;48.406;-4.514;2023-05-13T12:35:24;15.75;14.00;13.00
73749;PMS7003;62058;48.406;-4.514;2023-05-13T12:38:02;18.33;13.33;11.33
73749;PMS7003;62058;48.406;-4.514;2023-05-13T12:40:28;16.25;15.25;12.50
73749;PMS7003;62058;48.406;-4.514;2023-05-13T12:43:00;18.75;14.25;13.00
73749;PMS7003;62058;48.406;-4.514;2023-05-13T12:45:26;21.50;15.75;12.50
73749;PMS7003;62058;48.406;-4.514;2023-05-13T12:47:52;16.00;12.50;10.50
73749;PMS7003;62058;48.406;-4.514;2023-05-13T12:50:18;17.50;15.50;13.50
73749;PMS7003;62058;48.406;-4.514;2023-05-13T12:52:44;20.75;15.75;14.50
73749;PMS7003;62058;48.406;-4.514;2023-05-13T12:55:09;15.25;10.25;9.50
73749;PMS7003;62058;48.406;-4.514;2023-05-13T12:57:37;10.00;8.75;8.25
73749;PMS7003;62058;48.406;-4.514;2023-05-13T13:00:02;12.75;11.50;10.50
73749;PMS7003;62058;48.406;-4.514;2023-05-13T13:02:27;9.25;6.25;6.25
73749;PMS7003;62058;48.406;-4.514;2023-05-13T13:04:53;12.33;10.00;9.67
73749;PMS7003;62058;48.406;-4.514;2023-05-13T13:07:18;12.33;11.33;10.67
73749;PMS7003;62058;48.406;-4.514;2023-05-13T13:09:43;16.33;12.33;10.67
73749;PMS7003;62058;48.406;-4.514;2023-05-13T13:12:08;12.67;8.67;6.67
73749;PMS7003;62058;48.406;-4.514;2023-05-13T13:14:34;14.67;13.67;12.00
73749;PMS7003;62058;48.406;-4.514;2023-05-13T13:16:59;11.00;11.00;10.50
73749;PMS7003;62058;48.406;-4.514;2023-05-13T13:19:24;16.00;15.67;13.00
73749;PMS7003;62058;48.406;-4.514;2023-05-13T13:21:50;18.25;14.50;13.25
73749;PMS7003;62058;48.406;-4.514;2023-05-13T13:24:15;21.75;14.25;11.25
73749;PMS7003;62058;48.406;-4.514;2023-05-13T13:26:40;24.00;15.00;13.00
73749;PMS7003;62058;48.406;-4.514;2023-05-13T13:29:05;16.33;14.00;12.67
73749;PMS7003;62058;48.406;-4.514;2023-05-13T13:31:31;15.00;13.33;12.33
73749;PMS7003;62058;48.406;-4.514;2023-05-13T13:33:56;11.67;9.00;8.33
73749;PMS7003;62058;48.406;-4.514;2023-05-13T13:36:28;13.75;10.25;9.00
73749;PMS7003;62058;48.406;-4.514;2023-05-13T13:38:53;15.00;13.25;12.00
73749;PMS7003;62058;48.406;-4.514;2023-05-13T13:41:18;5.67;5.67;5.33
73749;PMS7003;62058;48.406;-4.514;2023-05-13T13:43:43;12.75;11.50;10.50
73749;PMS7003;62058;48.406;-4.514;2023-05-13T13:46:09;13.50;11.00;10.25
73749;PMS7003;62058;48.406;-4.514;2023-05-13T13:48:34;15.00;13.67;10.67
73749;PMS7003;62058;48.406;-4.514;2023-05-13T13:50:59;13.67;11.00;10.00
73749;PMS7003;62058;48.406;-4.514;2023-05-13T13:53:24;13.67;12.67;11.00
73749;PMS7003;62058;48.406;-4.514;2023-05-13T13:55:50;11.67;10.00;9.00
73749;PMS7003;62058;48.406;-4.514;2023-05-13T13:58:15;12.50;10.25;9.75
73749;PMS7003;62058;48.406;-4.514;2023-05-13T14:00:40;14.75;9.75;7.75
73749;PMS7003;62058;48.406;-4.514;2023-05-13T14:03:05;17.33;12.00;11.00
73749;PMS7003;62058;48.406;-4.514;2023-05-13T14:05:31;16.75;11.50;10.25